Terminal Aerodrome Forecast
Issued by NWS Grand Forks, ND

Home | Current Version | Previous Version | Text Only | Print | Product List | Glossary On
Versions: 1 2 3 4 5 6 7 8 9 10 11 12 13 14 15 16 17 18
885
FTUS43 KFGF 201945 AAA
TAFFAR
TAF AMD
KFAR 201945Z 2020/2118 23012KT P6SM BKN200
     FM202200 25013G18KT P6SM SCT250
     FM210100 28017G25KT P6SM FEW250
     FM210300 31022G31KT P6SM FEW150
     FM210700 32022G31KT P6SM BKN040=

USA.gov is the U.S. government's official web portal to all federal, state and local government web resources and services.